Time;durP1;ratioP1;P1;durP2;ratioP2;P2;SDS_P1;SDS_P2;PMS_P1;PMS_P2;Temp;Humidity;BMP_temperature;BMP_pressure;BME280_temperature;BME280_humidity;BME280_pressure;Samples;Min_cycle;Max_cycle;Signal;HPM_P1;HPM_P2
2021/03/30 00:01:39;;;;;;;14.45;7.90;;;13.00;64.50;;;;;;5036366;28;20098;-81
2021/03/30 00:04:04;;;;;;;13.57;8.07;;;13.00;64.80;;;;;;5054158;28;20072;-81
2021/03/30 00:06:30;;;;;;;12.43;7.70;;;13.00;64.00;;;;;;5026736;28;20411;-82
2021/03/30 00:08:56;;;;;;;13.27;7.38;;;13.00;64.50;;;;;;5038115;28;20469;-81
2021/03/30 00:11:21;;;;;;;12.32;8.18;;;13.00;64.30;;;;;;5036582;28;20060;-82
2021/03/30 00:13:47;;;;;;;12.95;7.85;;;13.00;64.20;;;;;;5057288;28;20035;-81
2021/03/30 00:16:13;;;;;;;14.90;7.70;;;13.00;64.50;;;;;;5057152;28;20040;-82
2021/03/30 00:18:38;;;;;;;11.73;7.97;;;13.00;64.70;;;;;;5057076;28;20107;-81
2021/03/30 00:21:04;;;;;;;13.40;8.55;;;13.00;65.00;;;;;;5027744;28;20063;-82
2021/03/30 00:23:30;;;;;;;11.93;7.85;;;12.90;65.20;;;;;;5039454;28;20052;-81
2021/03/30 00:25:55;;;;;;;17.27;8.80;;;12.80;65.30;;;;;;5056967;28;20082;-82
2021/03/30 00:28:21;;;;;;;14.70;8.43;;;12.80;65.60;;;;;;5023312;28;20469;-81
2021/03/30 00:30:47;;;;;;;14.38;8.60;;;12.80;65.60;;;;;;5046501;28;20085;-81
2021/03/30 00:33:13;;;;;;;13.65;8.75;;;12.70;65.80;;;;;;5040116;28;20029;-81
2021/03/30 00:35:38;;;;;;;12.77;7.95;;;12.70;66.10;;;;;;5050064;28;20036;-81
2021/03/30 00:38:04;;;;;;;15.15;9.02;;;12.60;66.40;;;;;;5033620;28;20057;-82
2021/03/30 00:40:30;;;;;;;11.88;8.30;;;12.50;66.70;;;;;;5037875;28;20033;-81
2021/03/30 00:42:56;;;;;;;13.07;8.38;;;12.50;67.00;;;;;;5047738;28;20024;-81
2021/03/30 00:45:22;;;;;;;13.23;8.80;;;12.40;67.20;;;;;;5074512;28;20037;-83
2021/03/30 00:47:49;;;;;;;14.75;8.70;;;12.40;67.50;;;;;;5047275;28;20405;-83
2021/03/30 00:50:21;;;;;;;13.23;8.23;;;12.30;67.80;;;;;;5036578;28;20033;-82
2021/03/30 00:52:48;;;;;;;13.48;9.27;;;12.20;68.10;;;;;;5044454;28;20120;-83
2021/03/30 00:55:15;;;;;;;14.38;9.50;;;12.20;68.40;;;;;;5074504;28;20032;-83
2021/03/30 00:57:41;;;;;;;14.20;8.88;;;12.10;68.60;;;;;;5050128;28;20424;-82
2021/03/30 01:00:09;;;;;;;14.45;9.52;;;12.10;68.80;;;;;;5020387;28;20025;-83
2021/03/30 01:02:38;;;;;;;14.48;9.75;;;12.00;68.80;;;;;;5040798;28;20028;-83
2021/03/30 01:05:09;;;;;;;14.05;8.80;;;12.00;69.20;;;;;;5028674;28;20044;-83
2021/03/30 01:07:36;;;;;;;17.20;9.75;;;11.90;69.10;;;;;;5057990;28;20459;-83
2021/03/30 01:10:07;;;;;;;15.40;10.48;;;11.80;69.20;;;;;;5036328;28;20033;-82
2021/03/30 01:13:24;;;;;;;15.57;9.13;;;11.70;69.60;;;;;;5071120;28;20021;-82
2021/03/30 01:15:54;;;;;;;16.23;9.20;;;11.70;69.90;;;;;;5006625;28;20473;-82
2021/03/30 01:18:32;;;;;;;14.02;9.15;;;11.60;70.40;;;;;;5035230;28;20024;-83
2021/03/30 01:21:13;;;;;;;13.80;8.50;;;11.60;70.50;;;;;;5047991;28;20281;-82
2021/03/30 01:23:52;;;;;;;14.77;8.77;;;11.50;70.80;;;;;;5060293;28;20082;-82
2021/03/30 01:26:43;;;;;;;16.08;9.25;;;11.40;71.10;;;;;;5055941;28;20040;-83
2021/03/30 01:30:06;;;;;;;16.20;9.88;;;11.40;71.40;;;;;;5045510;28;20031;-82
2021/03/30 01:32:50;;;;;;;16.33;9.27;;;11.30;71.40;;;;;;4986008;28;20030;-82
2021/03/30 01:35:20;;;;;;;15.73;9.35;;;11.20;71.60;;;;;;4988382;28;20027;-83
2021/03/30 01:37:47;;;;;;;15.95;9.48;;;11.20;72.00;;;;;;5010160;28;20045;-82
2021/03/30 01:40:18;;;;;;;13.90;8.88;;;11.10;72.40;;;;;;5036902;28;20028;-83
2021/03/30 01:42:46;;;;;;;15.25;9.50;;;11.10;72.60;;;;;;5025070;28;20028;-82
2021/03/30 01:45:16;;;;;;;17.92;9.82;;;11.00;72.60;;;;;;5039263;28;20116;-82
2021/03/30 01:47:42;;;;;;;15.02;9.20;;;10.90;72.80;;;;;;5053444;28;20036;-83
2021/03/30 01:50:11;;;;;;;13.77;8.73;;;10.90;73.10;;;;;;5018556;28;20021;-82
2021/03/30 01:52:38;;;;;;;17.80;9.20;;;10.90;73.50;;;;;;5039811;28;20477;-82
2021/03/30 01:55:07;;;;;;;13.38;8.73;;;10.80;73.60;;;;;;5040537;28;20113;-83
2021/03/30 01:57:34;;;;;;;16.25;9.25;;;10.80;73.60;;;;;;5034547;28;20052;-82
2021/03/30 02:00:00;;;;;;;12.90;8.82;;;10.70;73.60;;;;;;5035286;28;20029;-82
2021/03/30 02:02:27;;;;;;;14.95;9.02;;;10.70;73.50;;;;;;5036883;28;20040;-83
2021/03/30 02:04:53;;;;;;;14.48;8.85;;;10.60;73.80;;;;;;5042628;28;20045;-82
2021/03/30 02:07:22;;;;;;;14.40;8.88;;;10.60;74.20;;;;;;5060434;28;20076;-83
2021/03/30 02:09:52;;;;;;;14.30;9.40;;;10.50;74.10;;;;;;5057847;28;20028;-86
2021/03/30 02:12:18;;;;;;;18.23;9.65;;;10.50;74.40;;;;;;5056804;28;20056;-83
2021/03/30 02:14:45;;;;;;;12.57;8.35;;;10.40;74.60;;;;;;5017649;28;20032;-83
2021/03/30 02:17:21;;;;;;;12.70;9.00;;;10.40;74.50;;;;;;5059689;28;20075;-87
2021/03/30 02:20:12;;;;;;;13.43;8.18;;;10.30;74.60;;;;;;5037644;28;20022;-82
2021/03/30 02:22:44;;;;;;;14.30;8.95;;;10.30;74.90;;;;;;5036540;28;20040;-82
2021/03/30 02:25:11;;;;;;;17.20;9.27;;;10.20;74.80;;;;;;5016349;28;20128;-85
2021/03/30 02:27:40;;;;;;;17.20;9.88;;;10.20;74.90;;;;;;5006199;28;20030;-82
2021/03/30 02:30:08;;;;;;;15.48;9.48;;;10.10;74.90;;;;;;4985283;28;20072;-82
2021/03/30 02:32:35;;;;;;;15.40;9.15;;;10.00;75.20;;;;;;5042880;28;20349;-83
2021/03/30 02:35:04;;;;;;;14.23;8.70;;;10.00;75.50;;;;;;5018008;28;20556;-82
2021/03/30 02:37:30;;;;;;;14.07;9.00;;;10.00;75.60;;;;;;5048535;28;20044;-82
2021/03/30 02:39:56;;;;;;;14.35;9.32;;;10.00;75.70;;;;;;5034421;28;20033;-83
2021/03/30 02:42:23;;;;;;;13.50;8.65;;;9.90;76.00;;;;;;5058728;28;20039;-82
2021/03/30 02:44:52;;;;;;;14.60;9.13;;;9.90;76.00;;;;;;5020631;28;20620;-83
2021/03/30 02:47:19;;;;;;;15.10;8.85;;;9.90;76.50;;;;;;5037722;28;20465;-82
2021/03/30 02:49:46;;;;;;;15.77;9.70;;;9.90;76.60;;;;;;5054239;28;20035;-84
2021/03/30 02:52:13;;;;;;;16.10;9.65;;;9.80;76.40;;;;;;5054925;28;20070;-82
2021/03/30 02:54:39;;;;;;;16.70;9.70;;;9.80;76.50;;;;;;5037512;28;20034;-82
2021/03/30 02:57:06;;;;;;;15.38;9.30;;;9.80;76.60;;;;;;5053703;28;20775;-86
2021/03/30 02:59:33;;;;;;;16.02;9.25;;;9.70;76.80;;;;;;5054313;28;20033;-82
2021/03/30 03:01:59;;;;;;;13.70;8.60;;;9.70;76.90;;;;;;5041910;28;20114;-82
2021/03/30 03:04:27;;;;;;;14.10;8.95;;;9.60;77.10;;;;;;5038300;28;20381;-81
2021/03/30 03:06:53;;;;;;;16.02;9.52;;;9.60;77.20;;;;;;5054411;28;20035;-82
2021/03/30 03:09:19;;;;;;;15.75;8.82;;;9.50;77.50;;;;;;5023356;28;20025;-83
2021/03/30 03:11:47;;;;;;;16.65;9.23;;;9.60;77.90;;;;;;5045159;28;20029;-88
2021/03/30 03:14:16;;;;;;;14.48;9.10;;;9.50;77.90;;;;;;5048780;28;20130;-82
2021/03/30 03:16:43;;;;;;;16.85;9.63;;;9.50;78.00;;;;;;5071666;28;20033;-82
2021/03/30 03:19:09;;;;;;;15.23;9.65;;;9.50;78.10;;;;;;5072006;28;20116;-82
2021/03/30 03:21:36;;;;;;;16.33;9.07;;;9.50;78.10;;;;;;5071536;28;20046;-82
2021/03/30 03:24:08;;;;;;;14.82;9.50;;;9.40;78.30;;;;;;5053538;28;20067;-82
2021/03/30 03:26:35;;;;;;;14.98;9.55;;;9.40;78.50;;;;;;5053388;28;20107;-81
2021/03/30 03:29:01;;;;;;;16.42;9.65;;;9.40;78.60;;;;;;5071672;28;20032;-82
2021/03/30 03:31:29;;;;;;;17.65;9.55;;;9.30;78.70;;;;;;5036005;28;20025;-82
2021/03/30 03:34:01;;;;;;;16.20;9.60;;;9.30;78.80;;;;;;5071587;28;20083;-82
2021/03/30 03:36:44;;;;;;;17.40;9.65;;;9.20;78.60;;;;;;5053315;28;20400;-83
2021/03/30 03:39:12;;;;;;;15.55;8.85;;;9.20;78.60;;;;;;5053604;28;20020;-81
2021/03/30 03:41:39;;;;;;;14.35;9.02;;;9.10;78.80;;;;;;5056736;28;20100;-81
2021/03/30 03:44:06;;;;;;;15.80;9.50;;;9.10;78.80;;;;;;5071519;28;20070;-83
2021/03/30 03:46:32;;;;;;;17.10;10.13;;;9.00;78.80;;;;;;5071181;28;20044;-83
2021/03/30 03:48:58;;;;;;;16.60;9.45;;;9.00;79.00;;;;;;5039745;28;20387;-83
2021/03/30 03:51:25;;;;;;;15.90;9.52;;;8.90;79.20;;;;;;5053531;28;20086;-85
2021/03/30 03:53:53;;;;;;;16.65;9.77;;;8.90;79.20;;;;;;5067714;28;20021;-82
2021/03/30 03:56:32;;;;;;;17.13;9.95;;;8.90;79.40;;;;;;5061573;28;20023;-82
2021/03/30 03:59:04;;;;;;;15.18;9.45;;;8.80;79.70;;;;;;5053156;28;20379;-83
2021/03/30 04:01:38;;;;;;;14.98;8.98;;;8.80;79.70;;;;;;5042992;28;20061;-83
2021/03/30 04:04:13;;;;;;;14.35;10.05;;;8.80;79.80;;;;;;5050728;28;20389;-83
2021/03/30 04:06:46;;;;;;;16.25;8.93;;;8.70;79.80;;;;;;5053302;28;20025;-82
2021/03/30 04:09:16;;;;;;;15.07;9.68;;;8.70;80.00;;;;;;5052863;28;20381;-83
2021/03/30 04:11:43;;;;;;;14.90;9.45;;;8.70;80.20;;;;;;5053396;28;20111;-83
2021/03/30 04:14:09;;;;;;;17.17;9.80;;;8.60;80.30;;;;;;5050427;28;20025;-82
2021/03/30 04:16:35;;;;;;;15.65;9.52;;;8.60;80.70;;;;;;5009145;28;20462;-82
2021/03/30 04:19:00;;;;;;;13.23;8.65;;;8.60;80.60;;;;;;5036578;28;20498;-82
2021/03/30 04:21:36;;;;;;;17.92;9.70;;;8.60;80.90;;;;;;5053368;28;20111;-84
2021/03/30 04:24:01;;;;;;;16.10;9.48;;;8.50;81.00;;;;;;5053018;28;20493;-83
2021/03/30 04:26:30;;;;;;;18.17;10.15;;;8.50;81.00;;;;;;5023139;28;20040;-82
2021/03/30 04:28:56;;;;;;;19.27;10.05;;;8.40;81.00;;;;;;5052758;28;20032;-83
2021/03/30 04:31:21;;;;;;;20.45;10.43;;;8.40;81.00;;;;;;5032106;28;20032;-82
2021/03/30 04:33:47;;;;;;;16.88;9.43;;;8.40;81.10;;;;;;5043714;28;20032;-83
2021/03/30 04:36:13;;;;;;;16.60;9.77;;;8.30;81.10;;;;;;5052540;28;20499;-82
2021/03/30 04:38:39;;;;;;;14.73;9.35;;;8.30;81.40;;;;;;5053112;28;20029;-83
2021/03/30 04:41:06;;;;;;;16.08;10.10;;;8.20;81.50;;;;;;5052744;28;20056;-82
2021/03/30 04:43:33;;;;;;;17.98;10.15;;;8.20;81.80;;;;;;5052860;28;20170;-82
2021/03/30 04:45:58;;;;;;;15.23;9.30;;;8.20;82.00;;;;;;5036302;28;20039;-84
2021/03/30 04:48:24;;;;;;;17.27;10.70;;;8.20;82.00;;;;;;5022557;28;20456;-83
2021/03/30 04:50:50;;;;;;;16.50;9.90;;;8.20;82.20;;;;;;5036190;28;20020;-83
2021/03/30 04:53:15;;;;;;;16.98;9.95;;;8.20;82.20;;;;;;5049929;28;20547;-82
2021/03/30 04:55:41;;;;;;;18.77;10.52;;;8.10;82.40;;;;;;5057720;28;20094;-83
2021/03/30 04:58:07;;;;;;;17.58;9.40;;;8.20;82.40;;;;;;5055023;28;20056;-83
2021/03/30 05:00:32;;;;;;;17.20;10.02;;;8.10;82.50;;;;;;5022748;28;20025;-82
2021/03/30 05:02:58;;;;;;;17.23;9.90;;;8.10;82.70;;;;;;5023527;28;20504;-82
2021/03/30 05:05:24;;;;;;;20.15;9.75;;;8.10;82.90;;;;;;5020753;28;20025;-82
2021/03/30 05:07:49;;;;;;;18.58;10.77;;;8.00;82.90;;;;;;5037162;28;20535;-80
2021/03/30 05:10:15;;;;;;;16.95;10.25;;;8.00;82.90;;;;;;5050366;28;20385;-81
2021/03/30 05:12:41;;;;;;;16.23;9.98;;;8.00;83.10;;;;;;5023827;28;20070;-80
2021/03/30 05:15:07;;;;;;;17.08;9.40;;;8.00;83.40;;;;;;5074919;28;20028;-80
2021/03/30 05:17:34;;;;;;;16.88;10.20;;;8.00;83.30;;;;;;5040366;28;20468;-81
2021/03/30 05:20:00;;;;;;;16.60;10.07;;;8.00;83.50;;;;;;5039942;28;20541;-81
2021/03/30 05:22:25;;;;;;;18.42;9.65;;;8.00;83.80;;;;;;5063109;28;20100;-80
2021/03/30 05:24:51;;;;;;;17.92;10.15;;;7.90;83.80;;;;;;5040386;28;20090;-81
2021/03/30 05:27:17;;;;;;;17.42;10.82;;;7.90;83.70;;;;;;5032736;28;20101;-81
2021/03/30 05:29:43;;;;;;;16.42;10.10;;;7.90;83.70;;;;;;5033317;28;20036;-80
2021/03/30 05:32:19;;;;;;;18.65;10.45;;;7.90;83.90;;;;;;5028140;28;20029;-81
2021/03/30 05:34:49;;;;;;;16.05;9.63;;;7.80;84.00;;;;;;5055511;28;20488;-80
2021/03/30 05:37:15;;;;;;;17.57;10.60;;;7.80;84.70;;;;;;5056815;28;20040;-81
2021/03/30 05:39:41;;;;;;;19.00;10.45;;;7.80;84.20;;;;;;5073203;28;20035;-81
2021/03/30 05:42:07;;;;;;;17.20;9.80;;;7.80;84.40;;;;;;5049199;28;20025;-81
2021/03/30 05:44:34;;;;;;;18.80;10.65;;;7.70;84.40;;;;;;5046288;28;20476;-82
2021/03/30 05:49:35;;;;;;;16.23;9.88;;;7.70;84.50;;;;;;5065894;28;20029;-82
2021/03/30 05:52:02;;;;;;;17.48;9.50;;;7.70;84.60;;;;;;5062842;28;20014;-85
2021/03/30 05:54:32;;;;;;;17.75;9.55;;;7.70;84.80;;;;;;5055320;28;20043;-87
2021/03/30 05:57:00;;;;;;;15.40;9.90;;;7.70;85.00;;;;;;5072450;28;20031;-91
2021/03/30 05:59:28;;;;;;;18.33;10.02;;;7.70;85.10;;;;;;5062566;28;20264;-84
2021/03/30 06:01:54;;;;;;;19.15;10.25;;;7.70;85.20;;;;;;5052396;28;20461;-86
2021/03/30 06:04:20;;;;;;;16.00;9.43;;;7.70;85.40;;;;;;5070702;28;20039;-80
2021/03/30 06:06:46;;;;;;;19.50;10.45;;;7.70;85.50;;;;;;5058454;28;20058;-82
2021/03/30 06:09:12;;;;;;;18.88;10.23;;;7.70;85.60;;;;;;5040595;28;20031;-81
2021/03/30 06:11:37;;;;;;;19.52;10.07;;;7.70;85.80;;;;;;5055897;28;20020;-82
2021/03/30 06:14:03;;;;;;;18.17;10.20;;;7.70;85.80;;;;;;5037454;28;20028;-80
2021/03/30 06:16:38;;;;;;;16.25;9.73;;;7.80;85.90;;;;;;5035498;28;20033;-80
2021/03/30 06:19:14;;;;;;;17.92;10.23;;;7.80;86.00;;;;;;5052303;28;20040;-80
2021/03/30 06:22:13;;;;;;;17.15;10.20;;;7.80;86.20;;;;;;5070975;28;20056;-80
2021/03/30 06:24:38;;;;;;;16.65;9.35;;;7.90;86.30;;;;;;5036571;28;20068;-79
2021/03/30 06:27:04;;;;;;;17.77;9.95;;;7.90;86.30;;;;;;5035600;28;20063;-80
2021/03/30 06:29:35;;;;;;;18.08;10.43;;;7.90;86.40;;;;;;5038802;28;20032;-80
2021/03/30 06:32:15;;;;;;;15.88;9.63;;;8.00;86.60;;;;;;5060060;28;20078;-80
2021/03/30 06:34:43;;;;;;;16.20;9.93;;;8.00;86.60;;;;;;5055537;28;20131;-80
2021/03/30 06:37:27;;;;;;;17.73;10.20;;;8.10;86.80;;;;;;5062046;28;20045;-79
2021/03/30 06:39:55;;;;;;;17.17;9.98;;;8.10;86.80;;;;;;5035638;28;20052;-80
2021/03/30 06:42:43;;;;;;;18.35;10.70;;;8.20;87.40;;;;;;5035301;28;20044;-80
2021/03/30 06:45:21;;;;;;;16.80;9.73;;;8.20;86.80;;;;;;5035325;28;20033;-80
2021/03/30 06:47:51;;;;;;;16.95;9.30;;;8.30;86.90;;;;;;5053294;28;20079;-81
2021/03/30 06:50:28;;;;;;;17.17;9.60;;;8.30;86.90;;;;;;5052991;28;20031;-81
2021/03/30 06:52:56;;;;;;;16.67;9.52;;;8.40;87.00;;;;;;5030720;28;20023;-81
2021/03/30 06:55:29;;;;;;;14.60;8.82;;;8.50;87.10;;;;;;5033802;28;20034;-81
2021/03/30 06:58:00;;;;;;;17.55;9.38;;;8.60;87.10;;;;;;5055299;28;20025;-81
2021/03/30 07:00:34;;;;;;;18.48;10.30;;;8.70;87.00;;;;;;5019630;28;20584;-82
2021/03/30 07:03:01;;;;;;;16.90;10.23;;;8.80;86.90;;;;;;5034908;28;20037;-85
2021/03/30 07:05:46;;;;;;;18.00;10.40;;;8.90;86.90;;;;;;5052169;28;20033;-83
2021/03/30 07:08:17;;;;;;;20.98;11.68;;;9.00;86.70;;;;;;5034969;28;20025;-80
2021/03/30 07:10:46;;;;;;;26.10;13.18;;;9.10;86.60;;;;;;5025319;28;20052;-81
2021/03/30 07:13:13;;;;;;;21.35;11.93;;;9.20;86.60;;;;;;5029373;28;20071;-83
2021/03/30 07:15:42;;;;;;;22.73;13.50;;;9.20;86.40;;;;;;5033549;28;20515;-82
2021/03/30 07:18:24;;;;;;;21.65;12.55;;;9.30;86.30;;;;;;5034200;28;20025;-81
2021/03/30 07:21:17;;;;;;;21.08;11.52;;;9.50;86.20;;;;;;5052158;28;20512;-80
2021/03/30 07:23:46;;;;;;;21.52;12.23;;;9.50;86.00;;;;;;5034149;28;20017;-81
2021/03/30 07:26:15;;;;;;;19.15;11.40;;;9.60;85.90;;;;;;5027964;28;20106;-82
2021/03/30 07:28:52;;;;;;;20.30;11.57;;;9.80;85.90;;;;;;5031913;28;20095;-82
2021/03/30 07:31:44;;;;;;;18.10;11.23;;;9.80;85.90;;;;;;5041295;28;20037;-82
2021/03/30 07:34:15;;;;;;;21.00;11.70;;;9.90;85.80;;;;;;5031580;28;20032;-82
2021/03/30 07:36:52;;;;;;;21.95;12.02;;;10.00;85.80;;;;;;5037491;28;20053;-81
2021/03/30 07:39:20;;;;;;;21.42;12.20;;;10.10;85.90;;;;;;5036766;28;20380;-82
2021/03/30 07:41:47;;;;;;;23.73;13.45;;;10.20;85.90;;;;;;5039746;28;20036;-82
2021/03/30 07:44:13;;;;;;;23.58;13.18;;;10.30;85.80;;;;;;5060755;28;20389;-84
2021/03/30 07:46:40;;;;;;;27.13;14.60;;;10.40;85.80;;;;;;5043791;28;20060;-81
2021/03/30 07:49:06;;;;;;;26.05;14.73;;;10.50;85.80;;;;;;5032776;28;20123;-83
2021/03/30 07:51:44;;;;;;;27.83;15.82;;;10.70;85.80;;;;;;5018662;28;20029;-81
2021/03/30 07:54:18;;;;;;;34.00;18.38;;;10.80;85.70;;;;;;5040921;28;20024;-89
2021/03/30 07:56:47;;;;;;;30.00;16.55;;;11.00;85.60;;;;;;5068468;28;20039;-82
2021/03/30 07:59:41;;;;;;;32.13;18.35;;;11.10;85.20;;;;;;5054487;28;20528;-81
2021/03/30 08:02:09;;;;;;;31.05;18.45;;;11.40;85.20;;;;;;5056591;28;20473;-79
2021/03/30 08:04:35;;;;;;;28.38;16.83;;;11.50;85.10;;;;;;5035054;28;20110;-79
2021/03/30 08:07:01;;;;;;;31.20;18.10;;;11.70;84.90;;;;;;5020404;28;20052;-78
2021/03/30 08:09:26;;;;;;;28.83;16.15;;;11.90;84.80;;;;;;5054856;28;20139;-83
2021/03/30 08:11:54;;;;;;;29.63;16.75;;;12.00;84.60;;;;;;5027654;28;20040;-84
2021/03/30 08:14:23;;;;;;;32.83;17.55;;;12.20;84.40;;;;;;5046502;28;20043;-82
2021/03/30 08:16:52;;;;;;;31.27;18.40;;;12.40;84.30;;;;;;5034821;28;20029;-81
2021/03/30 08:19:18;;;;;;;31.13;18.65;;;12.50;83.80;;;;;;5038734;28;20021;-80
2021/03/30 08:22:08;;;;;;;32.30;18.33;;;12.70;83.60;;;;;;5033691;28;20017;-83
2021/03/30 08:24:46;;;;;;;29.70;18.38;;;12.90;83.40;;;;;;5051362;28;20043;-81
2021/03/30 08:27:37;;;;;;;31.55;18.95;;;13.10;83.10;;;;;;5039539;28;20362;-88
2021/03/30 08:30:13;;;;;;;28.15;16.70;;;13.30;82.90;;;;;;5053470;28;20020;-83
2021/03/30 08:32:44;;;;;;;33.40;17.52;;;13.50;82.10;;;;;;5050006;28;20021;-79
2021/03/30 08:35:27;;;;;;;34.55;20.30;;;13.60;81.50;;;;;;5046512;28;20029;-80
2021/03/30 08:37:52;;;;;;;30.08;19.02;;;13.70;80.30;;;;;;5043711;28;20386;-80
2021/03/30 08:40:36;;;;;;;35.97;20.80;;;13.90;79.60;;;;;;5023275;28;20036;-79
2021/03/30 08:43:14;;;;;;;32.25;19.23;;;14.10;79.00;;;;;;5047367;28;20058;-79
2021/03/30 08:46:06;;;;;;;35.83;20.98;;;14.20;78.00;;;;;;5039726;28;20514;-79
2021/03/30 08:48:33;;;;;;;31.35;19.75;;;14.40;76.70;;;;;;5066169;28;20024;-77
2021/03/30 08:51:00;;;;;;;31.77;19.95;;;14.60;76.20;;;;;;5056643;28;20056;-78
2021/03/30 08:53:29;;;;;;;33.70;21.13;;;14.80;75.60;;;;;;5049261;28;20036;-80
2021/03/30 08:55:55;;;;;;;32.35;19.17;;;14.90;74.40;;;;;;5042675;28;20024;-79
2021/03/30 08:58:25;;;;;;;31.65;19.20;;;15.10;74.40;;;;;;5031608;28;20115;-78
2021/03/30 09:00:56;;;;;;;33.58;18.48;;;15.20;74.50;;;;;;5055352;28;20052;-78
2021/03/30 09:03:29;;;;;;;29.77;17.02;;;15.30;72.70;;;;;;5047664;28;20478;-78
2021/03/30 09:05:55;;;;;;;37.67;18.63;;;15.40;72.00;;;;;;5048069;28;20036;-79
2021/03/30 09:08:53;;;;;;;33.00;17.88;;;15.60;68.00;;;;;;5049669;28;20025;-78
2021/03/30 09:11:26;;;;;;;31.02;18.60;;;15.70;67.90;;;;;;5017536;28;20076;-79
2021/03/30 09:14:03;;;;;;;32.38;18.38;;;15.80;67.20;;;;;;5062275;28;20024;-80
2021/03/30 09:16:30;;;;;;;29.02;17.27;;;16.00;65.60;;;;;;5059610;28;20024;-79
2021/03/30 09:19:23;;;;;;;29.70;17.52;;;16.10;64.70;;;;;;5014439;28;20075;-79
2021/03/30 09:21:54;;;;;;;29.95;17.35;;;16.30;64.50;;;;;;5052065;28;20027;-78
2021/03/30 09:24:46;;;;;;;26.73;16.48;;;16.40;64.40;;;;;;5055973;28;20025;-78
2021/03/30 09:27:08;;;;;;;28.33;16.35;;;16.40;65.30;;;;;;5062906;28;20068;-79
2021/03/30 09:29:36;;;;;;;27.15;15.88;;;16.50;65.30;;;;;;5054569;28;20542;-79
2021/03/30 09:32:07;;;;;;;28.02;16.10;;;16.60;65.70;;;;;;5062938;28;20016;-79
2021/03/30 09:34:32;;;;;;;;;;;16.70;65.80;;;;;;5057702;28;20059;-79
2021/03/30 09:36:59;;;;;;;31.10;16.63;;;16.80;65.10;;;;;;5058396;28;19920;-75
2021/03/30 09:39:26;;;;;;;30.23;17.30;;;16.90;65.50;;;;;;5057231;28;20040;-79
2021/03/30 09:41:54;;;;;;;25.25;16.17;;;17.00;65.70;;;;;;5056787;28;20033;-76
2021/03/30 09:44:21;;;;;;;32.80;17.45;;;17.10;66.00;;;;;;5041705;28;20029;-81
2021/03/30 09:46:52;;;;;;;27.63;17.48;;;17.20;64.20;;;;;;5055668;28;20017;-77
2021/03/30 09:49:22;;;;;;;28.25;16.92;;;17.30;64.00;;;;;;5032025;28;20398;-87
2021/03/30 09:51:49;;;;;;;28.48;15.32;;;17.50;64.00;;;;;;5058299;28;20029;-78
2021/03/30 09:54:22;;;;;;;34.85;17.45;;;17.60;61.40;;;;;;5036963;28;20116;-76
2021/03/30 09:56:54;;;;;;;28.30;16.98;;;17.70;60.80;;;;;;5056154;28;20040;-78
2021/03/30 09:59:20;;;;;;;28.02;16.25;;;17.90;60.80;;;;;;5038581;28;20064;-78
2021/03/30 10:01:46;;;;;;;28.20;15.65;;;18.00;58.30;;;;;;5036569;28;20029;-75
2021/03/30 10:04:12;;;;;;;29.35;15.27;;;18.10;58.70;;;;;;5053444;28;20025;-77
2021/03/30 10:06:38;;;;;;;26.73;15.18;;;18.20;58.20;;;;;;5053805;28;20112;-75
2021/03/30 10:09:05;;;;;;;21.60;14.13;;;18.40;57.80;;;;;;5036207;28;20025;-75
2021/03/30 10:11:31;;;;;;;26.25;15.65;;;18.40;56.60;;;;;;5035743;28;20025;-75
2021/03/30 10:14:19;;;;;;;28.17;15.45;;;18.60;55.00;;;;;;5035596;28;20025;-75
2021/03/30 10:16:45;;;;;;;24.77;15.50;;;18.70;54.80;;;;;;5035137;28;20017;-75
2021/03/30 10:19:15;;;;;;;27.42;16.00;;;18.80;54.20;;;;;;5050781;28;20031;-76
2021/03/30 10:21:42;;;;;;;26.48;16.60;;;18.90;53.10;;;;;;5052903;28;20028;-77
2021/03/30 10:24:12;;;;;;;21.70;13.60;;;19.00;53.30;;;;;;5044097;28;20049;-74
2021/03/30 10:26:38;;;;;;;20.35;12.48;;;19.10;52.30;;;;;;5044402;28;20496;-77
2021/03/30 10:29:11;;;;;;;26.65;15.50;;;19.20;52.50;;;;;;5030259;28;20123;-76
2021/03/30 10:34:43;;;;;;;22.98;13.75;;;19.40;52.60;;;;;;5045923;28;20059;-76
2021/03/30 10:37:12;;;;;;;21.38;14.27;;;19.60;52.50;;;;;;4942578;28;20059;-77
2021/03/30 10:39:42;;;;;;;21.25;13.60;;;19.70;51.80;;;;;;4968752;28;20443;-76
2021/03/30 10:42:13;;;;;;;22.75;15.00;;;19.80;52.00;;;;;;5010932;28;20052;-77
2021/03/30 10:44:46;;;;;;;;;;;19.90;51.90;;;;;;5032007;28;20029;-76
2021/03/30 10:47:16;;;;;;;20.05;13.20;;;20.10;51.20;;;;;;5017145;28;20338;-78
2021/03/30 10:49:42;;;;;;;20.35;13.23;;;20.10;51.20;;;;;;5049398;28;20389;-76
2021/03/30 10:52:16;;;;;;;18.38;12.55;;;20.20;51.60;;;;;;5042207;28;20021;-78
2021/03/30 10:54:43;;;;;;;21.25;12.75;;;20.30;50.90;;;;;;5049873;28;20071;-76
2021/03/30 10:57:14;;;;;;;19.73;12.30;;;20.50;49.40;;;;;;5033690;28;20123;-77
2021/03/30 10:59:40;;;;;;;21.88;13.43;;;20.60;49.80;;;;;;5051654;28;20032;-76
2021/03/30 11:02:06;;;;;;;18.48;12.27;;;20.70;49.30;;;;;;5025009;28;20053;-75
2021/03/30 11:04:32;;;;;;;23.92;14.90;;;20.80;49.40;;;;;;5052082;28;20497;-76
2021/03/30 11:06:57;;;;;;;19.58;12.52;;;20.90;47.60;;;;;;5025486;28;20033;-76
2021/03/30 11:09:24;;;;;;;22.13;13.02;;;21.00;49.00;;;;;;5054775;28;20025;-77
2021/03/30 11:11:50;;;;;;;21.27;14.13;;;21.10;48.70;;;;;;5052551;28;20032;-75
2021/03/30 11:14:16;;;;;;;19.88;13.35;;;21.10;47.70;;;;;;5051490;28;20013;-77
2021/03/30 11:16:42;;;;;;;20.50;13.85;;;21.30;47.30;;;;;;5030620;28;20049;-75
2021/03/30 11:19:10;;;;;;;20.05;13.10;;;21.30;47.40;;;;;;5043905;28;20508;-76
2021/03/30 11:21:36;;;;;;;18.50;12.07;;;21.40;48.40;;;;;;5028095;28;20040;-76
2021/03/30 11:24:03;;;;;;;20.55;14.00;;;21.50;47.60;;;;;;5034006;28;20033;-74
2021/03/30 11:26:29;;;;;;;28.98;12.20;;;21.60;47.00;;;;;;5017580;28;20440;-76
2021/03/30 11:28:56;;;;;;;19.67;13.80;;;21.70;48.10;;;;;;5012619;28;20029;-75
2021/03/30 11:31:48;;;;;;;20.98;13.38;;;21.70;47.10;;;;;;5014182;28;20488;-77
2021/03/30 11:34:35;;;;;;;23.40;14.13;;;21.90;47.40;;;;;;5030858;28;20032;-75
2021/03/30 11:37:08;;;;;;;26.25;15.60;;;22.00;47.10;;;;;;5022162;28;20051;-75
2021/03/30 11:39:34;;;;;;;23.27;15.90;;;22.10;46.00;;;;;;5062041;28;20037;-77
2021/03/30 11:42:00;;;;;;;24.90;15.55;;;22.20;43.90;;;;;;5062070;28;20043;-75
2021/03/30 11:44:25;;;;;;;21.70;14.32;;;22.20;43.60;;;;;;5048034;28;20032;-76
2021/03/30 11:46:51;;;;;;;20.10;12.52;;;22.30;43.30;;;;;;5065993;28;20096;-76
2021/03/30 11:49:17;;;;;;;19.00;12.60;;;22.40;43.00;;;;;;5043659;28;20082;-75
2021/03/30 11:51:42;;;;;;;20.33;12.80;;;22.50;41.90;;;;;;5046312;28;20029;-75
2021/03/30 11:54:08;;;;;;;20.13;12.70;;;22.60;42.50;;;;;;5043278;28;20470;-77
2021/03/30 11:56:34;;;;;;;20.92;14.23;;;22.70;42.60;;;;;;5062235;28;20061;-76
2021/03/30 11:59:00;;;;;;;24.30;14.80;;;22.80;42.20;;;;;;5050279;28;20029;-75
2021/03/30 12:01:26;;;;;;;23.65;14.02;;;22.80;42.50;;;;;;5063119;28;20075;-76
2021/03/30 12:03:51;;;;;;;21.92;15.70;;;22.90;43.30;;;;;;5064382;28;20028;-77
2021/03/30 12:06:17;;;;;;;25.60;16.73;;;22.90;43.60;;;;;;5051226;28;20086;-76
2021/03/30 12:08:43;;;;;;;24.38;14.88;;;22.90;42.10;;;;;;5064693;28;20461;-75
2021/03/30 12:11:08;;;;;;;23.33;15.40;;;22.90;41.60;;;;;;5034625;28;20477;-76
2021/03/30 12:13:34;;;;;;;20.52;13.75;;;23.00;41.20;;;;;;5048751;28;20535;-75
2021/03/30 12:16:00;;;;;;;19.58;13.23;;;23.00;42.40;;;;;;5036468;28;20401;-76
2021/03/30 12:18:25;;;;;;;22.45;15.30;;;23.20;43.00;;;;;;5048456;28;20029;-76
2021/03/30 12:20:51;;;;;;;24.60;17.10;;;23.30;42.20;;;;;;5044339;28;20028;-76
2021/03/30 12:23:17;;;;;;;29.50;16.80;;;23.30;41.20;;;;;;5049635;28;20436;-77
2021/03/30 12:25:43;;;;;;;26.42;18.30;;;23.40;42.20;;;;;;5054658;28;20087;-76
2021/03/30 12:28:08;;;;;;;27.20;17.30;;;23.50;41.30;;;;;;5055225;28;20070;-77
2021/03/30 12:30:34;;;;;;;25.23;16.98;;;23.50;42.20;;;;;;5038908;28;20218;-77
2021/03/30 12:33:00;;;;;;;27.08;17.98;;;23.70;42.50;;;;;;5034100;28;20025;-77
2021/03/30 12:35:26;;;;;;;29.92;19.50;;;23.70;42.40;;;;;;5060419;28;20041;-76
2021/03/30 12:37:51;;;;;;;27.92;17.67;;;23.80;42.10;;;;;;5057730;28;20115;-75
2021/03/30 12:40:17;;;;;;;29.55;19.63;;;23.90;42.50;;;;;;5066020;28;20028;-75
2021/03/30 12:42:43;;;;;;;25.20;17.58;;;24.00;42.60;;;;;;5056360;28;20396;-80
2021/03/30 12:45:09;;;;;;;23.42;16.63;;;24.00;42.20;;;;;;5019351;28;20480;-76
2021/03/30 12:47:35;;;;;;;22.33;16.08;;;24.00;42.20;;;;;;5048380;28;20101;-77
2021/03/30 12:50:00;;;;;;;23.70;15.30;;;24.10;42.00;;;;;;5044148;28;20528;-76
2021/03/30 12:52:27;;;;;;;20.45;13.32;;;24.10;41.10;;;;;;5039750;28;20021;-76
2021/03/30 12:54:55;;;;;;;22.23;13.43;;;24.10;39.30;;;;;;5059696;28;20041;-76